createdAt,value
2023-04-15T00:00:04.698Z,36.88
2023-04-15T00:01:04.684Z,36.86
2023-04-15T00:02:04.808Z,36.89
2023-04-15T00:03:04.795Z,36.88
2023-04-15T00:04:04.783Z,36.84
2023-04-15T00:05:04.654Z,36.86
2023-04-15T00:06:04.649Z,36.88
2023-04-15T00:07:04.631Z,36.85
2023-04-15T00:08:04.627Z,36.84
2023-04-15T00:09:04.626Z,36.81
2023-04-15T00:10:04.615Z,36.81
2023-04-15T00:11:04.607Z,36.77
2023-04-15T00:12:04.590Z,36.75
2023-04-15T00:13:04.593Z,36.71
2023-04-15T00:14:04.586Z,36.67
2023-04-15T00:15:04.563Z,36.70
2023-04-15T00:16:04.548Z,36.68
2023-04-15T00:17:04.683Z,36.68
2023-04-15T00:18:04.545Z,36.71
2023-04-15T00:19:04.520Z,36.66
2023-04-15T00:20:04.499Z,36.59
2023-04-15T00:21:04.492Z,36.57
2023-04-15T00:22:04.476Z,36.61
2023-04-15T00:23:04.621Z,36.58
2023-04-15T00:24:04.488Z,36.57
2023-04-15T00:25:04.485Z,36.56
2023-04-15T00:26:04.502Z,36.55
2023-04-15T00:27:04.479Z,36.59
2023-04-15T00:28:04.483Z,36.57
2023-04-15T00:29:04.502Z,36.54
2023-04-15T00:30:04.502Z,36.55
2023-04-15T00:31:04.548Z,36.55
2023-04-15T00:32:04.498Z,36.55
2023-04-15T00:33:04.506Z,36.54
2023-04-15T00:34:04.517Z,36.61
2023-04-15T00:35:04.522Z,36.56
2023-04-15T00:36:04.532Z,36.53
2023-04-15T00:37:04.529Z,36.53
2023-04-15T00:38:04.538Z,36.51
2023-04-15T00:39:04.540Z,36.47
2023-04-15T00:40:04.559Z,36.49
2023-04-15T00:41:04.564Z,36.51
2023-04-15T00:42:04.578Z,36.53
2023-04-15T00:43:04.563Z,36.49
2023-04-15T00:44:04.572Z,36.53
2023-04-15T00:45:04.583Z,36.45
2023-04-15T00:46:04.603Z,36.47
2023-04-15T00:47:04.609Z,36.51
2023-04-15T00:48:04.675Z,36.45
2023-04-15T00:49:04.612Z,36.41
2023-04-15T00:50:04.604Z,36.38
2023-04-15T00:51:05.298Z,36.37
2023-04-15T00:52:04.606Z,36.43
2023-04-15T00:53:04.610Z,36.43
2023-04-15T00:54:04.618Z,36.39
2023-04-15T00:55:04.690Z,36.36
2023-04-15T00:56:04.636Z,36.36
2023-04-15T00:57:04.636Z,36.39
2023-04-15T00:58:04.650Z,36.41
2023-04-15T00:59:04.643Z,36.41
2023-04-15T01:00:04.662Z,36.41
2023-04-15T01:01:04.670Z,36.38
2023-04-15T01:02:04.759Z,36.36
2023-04-15T01:03:04.789Z,36.35
2023-04-15T01:04:04.765Z,36.36
2023-04-15T01:05:04.701Z,36.31
2023-04-15T01:06:04.685Z,36.28
2023-04-15T01:07:04.689Z,36.24
2023-04-15T01:08:04.693Z,36.29
2023-04-15T01:09:04.698Z,36.35
2023-04-15T01:10:04.730Z,36.34
2023-04-15T01:11:04.705Z,36.35
2023-04-15T01:12:04.708Z,36.33
2023-04-15T01:13:04.721Z,36.31
2023-04-15T01:14:04.745Z,36.31
2023-04-15T01:15:04.728Z,36.29
2023-04-15T01:16:04.757Z,36.31
2023-04-15T01:17:04.740Z,36.33
2023-04-15T01:18:04.811Z,36.34
2023-04-15T01:19:04.763Z,36.37
2023-04-15T01:20:04.772Z,36.35
2023-04-15T01:21:04.775Z,36.34
2023-04-15T01:22:04.780Z,36.28
2023-04-15T01:23:04.783Z,36.33
2023-04-15T01:24:04.794Z,36.29
2023-04-15T01:25:04.799Z,36.33
2023-04-15T01:26:04.803Z,36.30
2023-04-15T01:27:04.819Z,36.23
2023-04-15T01:28:04.832Z,36.29
2023-04-15T01:29:04.842Z,36.23
2023-04-15T01:30:04.856Z,36.27
2023-04-15T01:31:04.896Z,36.26
2023-04-15T01:32:04.873Z,36.22
2023-04-15T01:33:04.888Z,36.28
2023-04-15T01:34:04.899Z,36.26
2023-04-15T01:35:04.897Z,36.31
2023-04-15T01:36:04.899Z,36.26
2023-04-15T01:37:04.905Z,36.19
2023-04-15T01:38:04.912Z,36.19
2023-04-15T01:39:04.925Z,36.17
2023-04-15T01:40:04.938Z,36.16
2023-04-15T01:41:04.937Z,36.18
2023-04-15T01:42:04.938Z,36.15
2023-04-15T01:43:04.973Z,36.16
2023-04-15T01:44:04.953Z,36.12
2023-04-15T01:45:04.959Z,36.08
2023-04-15T01:46:04.957Z,36.09
2023-04-15T01:47:05.007Z,36.15
2023-04-15T01:48:04.969Z,36.14
2023-04-15T01:49:04.978Z,36.14
2023-04-15T01:50:04.978Z,36.10
2023-04-15T01:51:04.979Z,36.08
2023-04-15T01:52:04.990Z,36.05
2023-04-15T01:53:04.984Z,36.10
2023-04-15T01:54:04.999Z,36.10
2023-04-15T01:55:05.010Z,36.09
2023-04-15T01:56:05.011Z,36.08
2023-04-15T01:57:05.021Z,36.06
2023-04-15T01:58:05.010Z,36.05
2023-04-15T01:59:05.032Z,36.06
2023-04-15T02:00:05.048Z,36.07
2023-04-15T02:01:05.065Z,36.06
2023-04-15T02:02:05.086Z,36.05
2023-04-15T02:03:05.071Z,36.10
2023-04-15T02:04:05.130Z,36.08
2023-04-15T02:05:05.074Z,36.09
2023-04-15T02:06:05.075Z,36.05
2023-04-15T02:07:05.097Z,36.02
2023-04-15T02:08:05.103Z,35.99
2023-04-15T02:09:05.111Z,36.03
2023-04-15T02:10:05.107Z,35.96
2023-04-15T02:11:05.124Z,35.99
2023-04-15T02:12:05.122Z,35.95
2023-04-15T02:13:05.121Z,35.91
2023-04-15T02:14:05.136Z,35.85
2023-04-15T02:15:05.147Z,35.87
2023-04-15T02:16:05.148Z,35.89
2023-04-15T02:17:05.153Z,35.92
2023-04-15T02:18:05.169Z,35.89
2023-04-15T02:19:05.176Z,35.85
2023-04-15T02:20:05.181Z,35.82
2023-04-15T02:21:05.224Z,35.83
2023-04-15T02:22:05.195Z,35.87
2023-04-15T02:23:05.204Z,35.83
2023-04-15T02:24:05.204Z,35.82
2023-04-15T02:25:05.212Z,35.79
2023-04-15T02:26:05.219Z,35.80
2023-04-15T02:27:05.231Z,35.85
2023-04-15T02:28:05.243Z,35.87
2023-04-15T02:29:05.275Z,35.88
2023-04-15T02:30:05.266Z,35.89
2023-04-15T02:31:05.288Z,35.82
2023-04-15T02:32:05.320Z,35.84
2023-04-15T02:33:05.304Z,35.84
2023-04-15T02:34:05.296Z,35.81
2023-04-15T02:35:05.314Z,35.85
2023-04-15T02:36:05.322Z,35.80
2023-04-15T02:37:05.336Z,35.84
2023-04-15T02:38:05.348Z,35.85
2023-04-15T02:39:05.345Z,35.85
2023-04-15T02:40:05.362Z,35.86
2023-04-15T02:41:05.356Z,35.80
2023-04-15T02:42:05.365Z,35.77
2023-04-15T02:43:05.367Z,35.78
2023-04-15T02:44:05.373Z,35.73
2023-04-15T02:45:05.378Z,35.69
2023-04-15T02:46:05.426Z,35.67
2023-04-15T02:47:05.386Z,35.66
2023-04-15T02:48:05.418Z,35.65
2023-04-15T02:49:05.410Z,35.66
2023-04-15T02:50:05.409Z,35.66
2023-04-15T02:51:05.473Z,35.62
2023-04-15T02:52:05.422Z,35.66
2023-04-15T02:53:05.418Z,35.69
2023-04-15T02:54:05.430Z,35.67
2023-04-15T02:55:05.446Z,35.69
2023-04-15T02:56:05.447Z,35.70
2023-04-15T02:57:05.459Z,35.68
2023-04-15T02:58:05.459Z,35.72
2023-04-15T02:59:05.468Z,35.65
2023-04-15T03:00:05.488Z,35.64
2023-04-15T03:01:05.508Z,35.65
2023-04-15T03:02:05.532Z,35.63
2023-04-15T03:03:05.657Z,35.60
2023-04-15T03:04:05.592Z,35.58
2023-04-15T03:05:05.517Z,35.57
2023-04-15T03:06:05.519Z,35.60
2023-04-15T03:07:05.525Z,35.57
2023-04-15T03:08:05.533Z,35.56
2023-04-15T03:09:05.538Z,35.53
2023-04-15T03:10:05.552Z,35.50
2023-04-15T03:11:05.560Z,35.48
2023-04-15T03:12:05.567Z,35.46
2023-04-15T03:13:05.594Z,35.49
2023-04-15T03:14:05.627Z,35.51
2023-04-15T03:15:05.607Z,35.50
2023-04-15T03:16:05.653Z,35.48
2023-04-15T03:17:05.618Z,35.49
2023-04-15T03:18:05.637Z,35.54
2023-04-15T03:19:05.638Z,35.53
2023-04-15T03:20:05.665Z,35.53
2023-04-15T03:21:05.626Z,35.53
2023-04-15T03:22:05.634Z,35.55
2023-04-15T03:23:05.642Z,35.49
2023-04-15T03:24:05.661Z,35.56
2023-04-15T03:25:05.656Z,35.55
2023-04-15T03:26:05.669Z,35.48
2023-04-15T03:27:05.667Z,35.52
2023-04-15T03:28:05.668Z,35.51
2023-04-15T03:29:05.689Z,35.50
2023-04-15T03:30:05.685Z,35.49
2023-04-15T03:31:05.765Z,35.50
2023-04-15T03:32:05.704Z,35.46
2023-04-15T03:33:05.716Z,35.45
2023-04-15T03:34:05.728Z,35.45
2023-04-15T03:35:05.724Z,35.44
2023-04-15T03:36:05.736Z,35.40
2023-04-15T03:37:05.744Z,35.39
2023-04-15T03:38:05.751Z,35.36
2023-04-15T03:39:05.757Z,35.37
2023-04-15T03:40:05.769Z,35.35
2023-04-15T03:41:05.752Z,35.38
2023-04-15T03:42:05.754Z,35.37
2023-04-15T03:43:05.778Z,35.37
2023-04-15T03:44:05.779Z,35.38
2023-04-15T03:45:05.775Z,35.34
2023-04-15T03:46:05.824Z,35.35
2023-04-15T03:47:05.788Z,35.32
2023-04-15T03:48:16.559Z,35.31
2023-04-15T03:49:06.777Z,35.31
2023-04-15T03:50:05.788Z,35.30
2023-04-15T03:51:06.353Z,35.31
2023-04-15T03:52:05.769Z,35.29
2023-04-15T03:53:05.741Z,35.25
2023-04-15T03:54:05.727Z,35.28
2023-04-15T03:55:05.727Z,35.28
2023-04-15T03:56:05.713Z,35.29
2023-04-15T03:57:05.715Z,35.29
2023-04-15T03:58:05.725Z,35.30
2023-04-15T03:59:05.696Z,35.27
2023-04-15T04:00:05.705Z,35.29
2023-04-15T04:01:05.658Z,35.28
2023-04-15T04:02:05.743Z,35.26
2023-04-15T04:03:05.749Z,35.28
2023-04-15T04:04:05.765Z,35.25
2023-04-15T04:05:05.617Z,35.24
2023-04-15T04:06:05.611Z,35.23
2023-04-15T04:07:05.587Z,35.22
2023-04-15T04:08:05.571Z,35.20
2023-04-15T04:09:05.557Z,35.19
2023-04-15T04:10:05.544Z,35.18
2023-04-15T04:11:05.521Z,35.20
2023-04-15T04:12:05.509Z,35.17
2023-04-15T04:13:05.494Z,35.14
2023-04-15T04:14:05.493Z,35.15
2023-04-15T04:15:05.477Z,35.16
2023-04-15T04:16:05.553Z,35.13
2023-04-15T04:17:05.554Z,35.12
2023-04-15T04:18:05.481Z,35.15
2023-04-15T04:19:05.479Z,35.16
2023-04-15T04:20:05.489Z,35.15
2023-04-15T04:21:05.502Z,35.13
2023-04-15T04:22:05.504Z,35.13
2023-04-15T04:23:05.510Z,35.12
2023-04-15T04:24:05.529Z,35.07
2023-04-15T04:25:05.526Z,35.07
2023-04-15T04:26:05.539Z,35.05
2023-04-15T04:27:05.531Z,35.07
2023-04-15T04:28:05.535Z,35.09
2023-04-15T04:29:05.544Z,35.10
2023-04-15T04:30:05.559Z,35.10
2023-04-15T04:31:05.559Z,35.12
2023-04-15T04:32:05.616Z,35.12
2023-04-15T04:33:05.609Z,35.12
2023-04-15T04:34:05.548Z,35.10
2023-04-15T04:35:05.564Z,35.07
2023-04-15T04:36:05.581Z,35.08
2023-04-15T04:37:05.565Z,35.07
2023-04-15T04:38:05.560Z,35.07
2023-04-15T04:39:05.572Z,35.05
2023-04-15T04:40:05.596Z,35.06
2023-04-15T04:41:05.581Z,35.01
2023-04-15T04:42:05.588Z,35.02
2023-04-15T04:43:05.612Z,34.99
2023-04-15T04:44:05.602Z,35.00
2023-04-15T04:45:05.609Z,34.96
2023-04-15T04:46:05.633Z,34.96
2023-04-15T04:47:05.609Z,34.95
2023-04-15T04:48:05.678Z,34.96
2023-04-15T04:49:05.619Z,34.91
2023-04-15T04:50:05.632Z,34.95
2023-04-15T04:51:05.630Z,34.97
2023-04-15T04:52:05.632Z,35.00
2023-04-15T04:53:05.628Z,35.02
2023-04-15T04:54:05.633Z,35.03
2023-04-15T04:55:05.651Z,35.00
2023-04-15T04:56:05.658Z,34.97
2023-04-15T04:57:06.375Z,34.97
2023-04-15T04:58:05.680Z,34.96
2023-04-15T04:59:05.688Z,34.96
2023-04-15T05:00:05.697Z,34.99
2023-04-15T05:01:05.742Z,35.02
2023-04-15T05:02:05.771Z,35.01
2023-04-15T05:03:05.824Z,34.98
2023-04-15T05:04:06.029Z,34.98
2023-04-15T05:05:05.728Z,34.96
2023-04-15T05:06:05.730Z,34.91
2023-04-15T05:07:05.736Z,34.91
2023-04-15T05:08:05.748Z,34.93
2023-04-15T05:09:05.765Z,34.95
2023-04-15T05:10:05.762Z,34.94
2023-04-15T05:11:05.774Z,34.96
2023-04-15T05:12:05.777Z,34.93
2023-04-15T05:13:05.775Z,34.98
2023-04-15T05:14:05.795Z,34.92
2023-04-15T05:15:05.804Z,34.88
2023-04-15T05:16:05.808Z,34.88
2023-04-15T05:17:05.813Z,34.88
2023-04-15T05:18:05.854Z,34.89
2023-04-15T05:19:05.822Z,34.87
2023-04-15T05:20:05.840Z,34.88
2023-04-15T05:21:05.849Z,34.86
2023-04-15T05:22:05.854Z,34.86
2023-04-15T05:23:05.857Z,34.81
2023-04-15T05:24:05.867Z,34.81
2023-04-15T05:25:05.881Z,34.81
2023-04-15T05:26:05.888Z,34.75
2023-04-15T05:27:05.900Z,34.79
2023-04-15T05:28:05.904Z,34.75
2023-04-15T05:29:05.904Z,34.76
2023-04-15T05:30:05.909Z,34.77
2023-04-15T05:31:05.952Z,34.79
2023-04-15T05:32:05.937Z,34.76
2023-04-15T05:33:05.945Z,34.78
2023-04-15T05:34:05.942Z,34.73
2023-04-15T05:35:05.938Z,34.68
2023-04-15T05:36:05.955Z,34.71
2023-04-15T05:37:05.975Z,34.69
2023-04-15T05:38:06.046Z,34.67
2023-04-15T05:39:05.987Z,34.70
2023-04-15T05:40:05.975Z,34.65
2023-04-15T05:41:05.978Z,34.71
2023-04-15T05:42:06.051Z,34.64
2023-04-15T05:43:05.989Z,34.64
2023-04-15T05:44:05.981Z,34.65
2023-04-15T05:45:05.980Z,34.67
2023-04-15T05:46:06.047Z,34.66
2023-04-15T05:47:06.023Z,34.65
2023-04-15T05:48:05.985Z,34.66
2023-04-15T05:49:05.991Z,34.62
2023-04-15T05:50:06.007Z,34.56
2023-04-15T05:51:06.008Z,34.57
2023-04-15T05:52:06.009Z,34.58
2023-04-15T05:53:06.011Z,34.63
2023-04-15T05:54:06.022Z,34.59
2023-04-15T05:55:06.000Z,34.60
2023-04-15T05:56:05.999Z,34.60
2023-04-15T05:57:06.010Z,34.56
2023-04-15T05:58:06.034Z,34.56
2023-04-15T05:59:06.017Z,34.54
2023-04-15T06:00:06.015Z,34.49
2023-04-15T06:01:06.040Z,34.44
2023-04-15T06:02:06.089Z,34.49
2023-04-15T06:03:06.111Z,34.51
2023-04-15T06:04:06.073Z,34.45
2023-04-15T06:05:06.061Z,34.44
2023-04-15T06:06:06.045Z,34.48
2023-04-15T06:07:06.033Z,34.53
2023-04-15T06:08:06.032Z,34.55
2023-04-15T06:09:06.046Z,34.54
2023-04-15T06:10:06.041Z,34.52
2023-04-15T06:11:06.086Z,34.48
2023-04-15T06:12:06.062Z,34.44
2023-04-15T06:13:06.070Z,34.41
2023-04-15T06:14:06.053Z,34.41
2023-04-15T06:15:06.058Z,34.42
2023-04-15T06:16:06.127Z,34.41
2023-04-15T06:17:06.079Z,34.41
2023-04-15T06:18:06.064Z,34.37
2023-04-15T06:19:06.072Z,34.38
2023-04-15T06:20:06.069Z,34.33
2023-04-15T06:21:06.067Z,34.33
2023-04-15T06:22:06.075Z,34.34
2023-04-15T06:23:06.072Z,34.32
2023-04-15T06:24:06.070Z,34.30
2023-04-15T06:25:06.065Z,34.34
2023-04-15T06:26:06.064Z,34.35
2023-04-15T06:27:06.070Z,34.31
2023-04-15T06:28:06.058Z,34.29
2023-04-15T06:29:06.064Z,34.26
2023-04-15T06:30:06.064Z,34.26
2023-04-15T06:31:06.047Z,34.24
2023-04-15T06:32:06.053Z,34.25
2023-04-15T06:33:06.031Z,34.25
2023-04-15T06:34:06.020Z,34.24
2023-04-15T06:35:06.033Z,34.21
2023-04-15T06:36:06.013Z,34.23
2023-04-15T06:37:06.377Z,34.17
2023-04-15T06:38:06.014Z,34.17
2023-04-15T06:39:06.022Z,34.13
2023-04-15T06:40:06.050Z,34.12
2023-04-15T06:41:06.073Z,34.09
2023-04-15T06:42:06.080Z,34.05
2023-04-15T06:43:06.112Z,34.05
2023-04-15T06:44:06.157Z,34.00
2023-04-15T06:45:06.175Z,33.95
2023-04-15T06:46:06.230Z,33.90
2023-04-15T06:47:06.218Z,33.85
2023-04-15T06:48:06.243Z,33.80
2023-04-15T06:49:06.298Z,33.78
2023-04-15T06:50:06.351Z,33.74
2023-04-15T06:51:06.404Z,33.74
2023-04-15T06:52:06.433Z,33.75
2023-04-15T06:53:06.458Z,33.72
2023-04-15T06:54:06.499Z,33.72
2023-04-15T06:55:06.542Z,33.70
2023-04-15T06:56:06.602Z,33.66
2023-04-15T06:57:06.657Z,33.70
2023-04-15T06:58:06.699Z,33.64
2023-04-15T06:59:06.748Z,33.64
2023-04-15T07:00:06.794Z,33.65
2023-04-15T07:01:06.893Z,33.62
2023-04-15T07:02:07.020Z,33.59
2023-04-15T07:03:07.004Z,33.55
2023-04-15T07:04:07.088Z,33.54
2023-04-15T07:05:07.061Z,33.54
2023-04-15T07:06:07.118Z,33.53
2023-04-15T07:07:07.171Z,33.51
2023-04-15T07:08:07.223Z,33.48
2023-04-15T07:09:07.268Z,33.45
2023-04-15T07:10:07.324Z,33.45
2023-04-15T07:11:07.374Z,33.43
2023-04-15T07:12:07.444Z,33.43
2023-04-15T07:13:07.482Z,33.41
2023-04-15T07:14:07.531Z,33.41
2023-04-15T07:15:07.570Z,33.38
2023-04-15T07:16:07.631Z,33.36
2023-04-15T07:17:07.787Z,33.34
2023-04-15T07:18:07.705Z,33.33
2023-04-15T07:19:07.763Z,33.25
2023-04-15T07:20:07.791Z,33.26
2023-04-15T07:21:07.841Z,33.26
2023-04-15T07:22:07.877Z,33.25
2023-04-15T07:23:07.917Z,33.25
2023-04-15T07:24:07.952Z,33.28
2023-04-15T07:25:07.981Z,33.27
2023-04-15T07:26:08.025Z,33.27
2023-04-15T07:27:08.059Z,33.27
2023-04-15T07:28:08.087Z,33.26
2023-04-15T07:29:08.940Z,33.23
2023-04-15T07:30:08.145Z,33.25
2023-04-15T07:31:08.246Z,33.21
2023-04-15T07:32:08.207Z,33.23
2023-04-15T07:33:08.244Z,33.24
2023-04-15T07:34:08.319Z,33.23
2023-04-15T07:35:08.288Z,33.22
2023-04-15T07:36:08.326Z,33.23
2023-04-15T07:37:08.355Z,33.22
2023-04-15T07:38:08.388Z,33.23
2023-04-15T07:39:08.421Z,33.22
2023-04-15T07:40:08.465Z,33.23
2023-04-15T07:41:08.492Z,33.25
2023-04-15T07:42:08.528Z,33.22
2023-04-15T07:43:08.546Z,33.22
2023-04-15T07:44:08.581Z,33.21
2023-04-15T07:45:08.621Z,33.23
2023-04-15T07:46:08.692Z,33.21
2023-04-15T07:47:08.693Z,33.24
2023-04-15T07:48:08.720Z,33.23
2023-04-15T07:49:08.751Z,33.22
2023-04-15T07:50:08.775Z,33.24
2023-04-15T07:51:08.822Z,33.24
2023-04-15T07:52:08.859Z,33.25
2023-04-15T07:53:08.931Z,33.29
2023-04-15T07:54:08.921Z,33.29
2023-04-15T07:55:08.951Z,33.30
2023-04-15T07:56:08.993Z,33.30
2023-04-15T07:57:09.021Z,33.29
2023-04-15T07:58:09.068Z,33.28
2023-04-15T07:59:09.094Z,33.30
2023-04-15T08:00:09.148Z,33.29
2023-04-15T08:01:09.192Z,33.30
2023-04-15T08:02:09.276Z,33.30
2023-04-15T08:03:09.466Z,33.31
2023-04-15T08:04:09.419Z,33.29
2023-04-15T08:05:09.411Z,33.31
2023-04-15T08:06:09.441Z,33.31
2023-04-15T08:07:09.434Z,33.30
2023-04-15T08:08:09.477Z,33.30
2023-04-15T08:09:09.520Z,33.27
2023-04-15T08:10:09.553Z,33.26
2023-04-15T08:11:09.612Z,33.25
2023-04-15T08:12:09.647Z,33.25
2023-04-15T08:13:09.692Z,33.23
2023-04-15T08:14:09.727Z,33.23
2023-04-15T08:15:09.792Z,33.23
2023-04-15T08:16:09.950Z,33.23
2023-04-15T08:17:09.870Z,33.22
2023-04-15T08:18:09.894Z,33.23
2023-04-15T08:19:09.934Z,33.19
2023-04-15T08:20:09.980Z,33.20
2023-04-15T08:21:10.024Z,33.21
2023-04-15T08:22:10.377Z,33.16
2023-04-15T08:23:11.055Z,33.17
2023-04-15T08:24:10.047Z,33.19
2023-04-15T08:25:10.030Z,33.19
2023-04-15T08:26:10.013Z,33.19
2023-04-15T08:27:10.060Z,33.14
2023-04-15T08:28:09.990Z,33.18
2023-04-15T08:29:09.992Z,33.18
2023-04-15T08:30:09.993Z,33.16
2023-04-15T08:31:10.037Z,33.20
2023-04-15T08:32:09.978Z,33.20
2023-04-15T08:33:10.006Z,33.22
2023-04-15T08:34:10.048Z,33.21
2023-04-15T08:35:10.091Z,33.19
2023-04-15T08:36:10.185Z,33.20
2023-04-15T08:37:11.462Z,33.18
2023-04-15T08:38:10.239Z,33.19
2023-04-15T08:39:10.297Z,33.19
2023-04-15T08:40:10.337Z,33.17
2023-04-15T08:41:10.387Z,33.17
2023-04-15T08:42:10.424Z,33.14
2023-04-15T08:43:10.484Z,33.16
2023-04-15T08:44:10.528Z,33.14
2023-04-15T08:45:10.586Z,33.13
2023-04-15T08:46:10.608Z,33.11
2023-04-15T08:47:10.727Z,33.10
2023-04-15T08:48:10.698Z,33.12
2023-04-15T08:49:10.744Z,33.08
2023-04-15T08:50:10.807Z,33.08
2023-04-15T08:51:10.842Z,33.06
2023-04-15T08:52:10.880Z,33.05
2023-04-15T08:53:10.929Z,33.03
2023-04-15T08:54:10.958Z,33.04
2023-04-15T08:55:10.998Z,33.03
2023-04-15T08:56:11.030Z,33.01
2023-04-15T08:57:11.062Z,33.01
2023-04-15T08:58:11.102Z,33.01
2023-04-15T08:59:11.145Z,33.00
2023-04-15T09:00:11.172Z,32.99
2023-04-15T09:01:11.213Z,33.00
2023-04-15T09:02:11.251Z,33.01
2023-04-15T09:03:11.316Z,33.00
2023-04-15T09:04:11.361Z,32.99
2023-04-15T09:05:11.315Z,32.99
2023-04-15T09:06:11.353Z,33.00
2023-04-15T09:07:11.388Z,33.00
2023-04-15T09:08:11.459Z,33.00
2023-04-15T09:09:11.438Z,32.99
2023-04-15T09:10:11.478Z,32.96
2023-04-15T09:11:11.499Z,32.97
2023-04-15T09:12:11.521Z,32.97
2023-04-15T09:13:11.546Z,32.97
2023-04-15T09:14:11.585Z,32.97
2023-04-15T09:15:11.647Z,32.95
2023-04-15T09:16:11.646Z,32.95
2023-04-15T09:17:11.651Z,32.93
2023-04-15T09:18:11.677Z,32.95
2023-04-15T09:19:11.696Z,32.94
2023-04-15T09:20:11.734Z,32.94
2023-04-15T09:21:11.772Z,32.95
2023-04-15T09:22:11.776Z,32.90
2023-04-15T09:23:11.799Z,32.91
2023-04-15T09:24:11.829Z,32.89
2023-04-15T09:25:11.847Z,32.89
2023-04-15T09:26:12.473Z,32.89
2023-04-15T09:27:11.903Z,32.89
2023-04-15T09:28:11.926Z,32.87
2023-04-15T09:29:11.958Z,32.86
2023-04-15T09:30:12.005Z,32.85
2023-04-15T09:31:12.041Z,32.84
2023-04-15T09:32:12.024Z,32.83
2023-04-15T09:33:12.058Z,32.81
2023-04-15T09:34:12.077Z,32.81
2023-04-15T09:35:12.109Z,32.79
2023-04-15T09:36:12.134Z,32.77
2023-04-15T09:37:12.962Z,32.78
2023-04-15T09:38:13.142Z,32.75
2023-04-15T09:39:12.125Z,32.75
2023-04-15T09:40:12.110Z,32.74
2023-04-15T09:41:12.101Z,32.74
2023-04-15T09:42:12.098Z,32.72
2023-04-15T09:43:12.077Z,32.72
2023-04-15T09:44:12.060Z,32.70
2023-04-15T09:45:12.062Z,32.71
2023-04-15T09:46:12.117Z,32.69
2023-04-15T09:47:12.013Z,32.70
2023-04-15T09:48:11.991Z,32.68
2023-04-15T09:49:12.051Z,32.67
2023-04-15T09:50:11.976Z,32.66
2023-04-15T09:51:11.963Z,32.67
2023-04-15T09:52:11.978Z,32.63
2023-04-15T09:53:11.975Z,32.65
2023-04-15T09:54:11.989Z,32.64
2023-04-15T09:55:12.001Z,32.63
2023-04-15T09:56:12.007Z,32.61
2023-04-15T09:57:12.023Z,32.61
2023-04-15T09:58:12.033Z,32.60
2023-04-15T09:59:12.057Z,32.60
2023-04-15T10:00:12.071Z,32.58
2023-04-15T10:01:12.110Z,32.58
2023-04-15T10:02:12.146Z,32.59
2023-04-15T10:03:12.163Z,32.56
2023-04-15T10:04:12.208Z,32.57
2023-04-15T10:05:12.109Z,32.57
2023-04-15T10:06:12.116Z,32.55
2023-04-15T10:07:12.146Z,32.56
2023-04-15T10:08:12.141Z,32.55
2023-04-15T10:09:12.153Z,32.53
2023-04-15T10:10:12.153Z,32.50
2023-04-15T10:11:12.165Z,32.52
2023-04-15T10:12:12.184Z,32.52
2023-04-15T10:13:12.187Z,32.49
2023-04-15T10:14:12.208Z,32.49
2023-04-15T10:15:12.220Z,32.50
2023-04-15T10:16:12.253Z,32.48
2023-04-15T10:17:12.229Z,32.49
2023-04-15T10:18:12.241Z,32.48
2023-04-15T10:19:12.265Z,32.48
2023-04-15T10:20:12.279Z,32.48
2023-04-15T10:21:12.289Z,32.46
2023-04-15T10:22:12.323Z,32.49
2023-04-15T10:23:13.430Z,32.46
2023-04-15T10:24:12.337Z,32.44
2023-04-15T10:25:12.349Z,32.44
2023-04-15T10:26:12.383Z,32.44
2023-04-15T10:27:12.374Z,32.44
2023-04-15T10:28:12.384Z,32.45
2023-04-15T10:29:12.405Z,32.41
2023-04-15T10:30:12.420Z,32.40
2023-04-15T10:31:12.452Z,32.37
2023-04-15T10:32:12.441Z,32.38
2023-04-15T10:33:12.463Z,32.37
2023-04-15T10:34:12.490Z,32.37
2023-04-15T10:35:12.497Z,32.36
2023-04-15T10:36:12.508Z,32.35
2023-04-15T10:37:12.536Z,32.35
2023-04-15T10:38:12.549Z,32.33
2023-04-15T10:39:12.559Z,32.31
2023-04-15T10:40:12.586Z,32.32
2023-04-15T10:41:12.586Z,32.32
2023-04-15T10:42:12.605Z,32.33
2023-04-15T10:43:12.614Z,32.31
2023-04-15T10:44:12.647Z,32.29
2023-04-15T10:45:12.651Z,32.30
2023-04-15T10:46:12.732Z,32.32
2023-04-15T10:47:12.673Z,32.29
2023-04-15T10:48:12.768Z,32.27
2023-04-15T10:49:12.723Z,32.27
2023-04-15T10:50:12.750Z,32.24
2023-04-15T10:51:12.766Z,32.27
2023-04-15T10:52:12.780Z,32.25
2023-04-15T10:53:12.801Z,32.26
2023-04-15T10:54:12.814Z,32.26
2023-04-15T10:55:12.846Z,32.22
2023-04-15T10:56:12.864Z,32.22
2023-04-15T10:57:12.877Z,32.23
2023-04-15T10:58:12.903Z,32.21
2023-04-15T10:59:12.937Z,32.20
2023-04-15T11:00:13.051Z,32.21
2023-04-15T11:01:12.966Z,32.20
2023-04-15T11:02:13.035Z,32.17
2023-04-15T11:03:13.120Z,32.17
2023-04-15T11:04:13.119Z,32.15
2023-04-15T11:05:13.075Z,32.13
2023-04-15T11:06:13.087Z,32.16
2023-04-15T11:07:13.114Z,32.17
2023-04-15T11:08:13.140Z,32.18
2023-04-15T11:09:13.160Z,32.18
2023-04-15T11:10:13.189Z,32.12
2023-04-15T11:11:13.201Z,32.14
2023-04-15T11:12:13.225Z,32.10
2023-04-15T11:13:13.250Z,32.12
2023-04-15T11:14:13.276Z,32.11
2023-04-15T11:15:13.294Z,32.09
2023-04-15T11:16:14.043Z,32.11
2023-04-15T11:17:13.336Z,32.08
2023-04-15T11:18:13.386Z,32.08
2023-04-15T11:19:13.392Z,32.08
2023-04-15T11:20:13.421Z,32.09
2023-04-15T11:21:13.454Z,32.08
2023-04-15T11:22:13.476Z,32.05
2023-04-15T11:23:14.930Z,32.07
2023-04-15T11:24:13.512Z,32.05
2023-04-15T11:25:13.541Z,32.08
2023-04-15T11:26:13.573Z,32.05
2023-04-15T11:27:13.599Z,32.06
2023-04-15T11:28:13.672Z,32.05
2023-04-15T11:29:13.652Z,32.04
2023-04-15T11:30:13.674Z,32.06
2023-04-15T11:31:13.713Z,32.06
2023-04-15T11:32:13.811Z,32.04
2023-04-15T11:33:13.760Z,32.04
2023-04-15T11:34:13.776Z,32.05
2023-04-15T11:35:13.819Z,32.05
2023-04-15T11:36:13.835Z,32.02
2023-04-15T11:37:13.864Z,32.04
2023-04-15T11:38:14.068Z,32.05
2023-04-15T11:39:13.931Z,32.04
2023-04-15T11:40:13.953Z,32.02
2023-04-15T11:41:13.958Z,32.00
2023-04-15T11:42:14.020Z,32.02
2023-04-15T11:43:14.046Z,32.03
2023-04-15T11:44:14.065Z,32.00
2023-04-15T11:45:14.096Z,32.02
2023-04-15T11:46:14.161Z,32.02
2023-04-15T11:47:14.155Z,32.03
2023-04-15T11:48:14.197Z,32.01
2023-04-15T11:49:14.213Z,32.01
2023-04-15T11:50:14.248Z,32.02
2023-04-15T11:51:14.290Z,32.01
2023-04-15T11:52:14.350Z,32.01
2023-04-15T11:53:14.334Z,31.99
2023-04-15T11:54:14.363Z,32.00
2023-04-15T11:55:14.387Z,32.01
2023-04-15T11:56:14.427Z,32.00
2023-04-15T11:57:14.465Z,32.01
2023-04-15T11:58:16.227Z,31.98
2023-04-15T11:59:14.534Z,31.98
2023-04-15T12:00:14.577Z,31.98
2023-04-15T12:01:14.599Z,31.99
2023-04-15T12:02:14.852Z,32.01
2023-04-15T12:03:15.006Z,32.00
2023-04-15T12:04:14.847Z,32.00
2023-04-15T12:05:14.757Z,32.01
2023-04-15T12:06:14.768Z,32.00
2023-04-15T12:07:14.792Z,32.00
2023-04-15T12:08:14.842Z,31.99
2023-04-15T12:09:14.852Z,32.03
2023-04-15T12:10:14.897Z,32.02
2023-04-15T12:11:14.932Z,32.01
2023-04-15T12:12:14.953Z,32.03
2023-04-15T12:13:14.966Z,32.00
2023-04-15T12:14:15.005Z,32.01
2023-04-15T12:15:15.031Z,32.00
2023-04-15T12:16:15.106Z,31.99
2023-04-15T12:17:15.085Z,31.99
2023-04-15T12:18:15.156Z,32.01
2023-04-15T12:19:15.151Z,31.99
2023-04-15T12:20:15.181Z,32.04
2023-04-15T12:21:15.219Z,32.02
2023-04-15T12:22:15.271Z,31.99
2023-04-15T12:23:15.280Z,32.03
2023-04-15T12:24:15.309Z,32.03
2023-04-15T12:25:15.351Z,32.00
2023-04-15T12:26:15.379Z,32.01
2023-04-15T12:27:15.415Z,32.01
2023-04-15T12:28:15.451Z,32.01
2023-04-15T12:29:15.483Z,32.00
2023-04-15T12:30:15.524Z,31.99
2023-04-15T12:31:15.606Z,31.98
2023-04-15T12:32:15.619Z,31.99
2023-04-15T12:33:15.598Z,31.99
2023-04-15T12:34:15.654Z,32.00
2023-04-15T12:35:15.678Z,32.00
2023-04-15T12:36:15.716Z,31.97
2023-04-15T12:37:15.754Z,32.00
2023-04-15T12:38:15.777Z,31.98
2023-04-15T12:39:15.802Z,31.98
2023-04-15T12:40:15.853Z,32.00
2023-04-15T12:41:15.891Z,32.02
2023-04-15T12:42:15.920Z,32.00
2023-04-15T12:43:15.964Z,32.01
2023-04-15T12:44:16.004Z,32.01
2023-04-15T12:45:16.036Z,32.00
2023-04-15T12:46:16.122Z,32.00
2023-04-15T12:47:16.113Z,32.00
2023-04-15T12:48:16.135Z,32.01
2023-04-15T12:49:16.174Z,32.01
2023-04-15T12:50:16.214Z,32.02
2023-04-15T12:51:16.243Z,32.01
2023-04-15T12:52:16.274Z,31.99